Flugplatz Ruppiner Land

Für EDBF sind keine METAR/TAF Berichte vorhanden.
Es werden die Flugwettermeldungen vom Flugplatz Berlin-Tegel International in 44 km Entfernung angezeigt.

Bericht für EDDT

vom 11.07. um 06:20 UTC

Wind 7 kt aus 270°

Sichtweite 10 km oder mehr

gering bewölkt in 1800 ft

Temperatur 14.0°C

Taupunkt 9.0°C

Luftfeuchtigkeit 72%

Luftdruck 1021 hPa

keine wesentliche Wetteränderung innerhalb den nächsten 2 Stunden zu erwarten

EDDT 110620Z 27007KT 230V310 9999 FEW018 14/09 Q1021 NOSIG

Prognose für EDDT

vom 11.07. um 05:00 UTC

Zwischen 06:00 UTC und 17:00 UTC

Wind 8 kt aus 290°

Sichtweite 10 km oder mehr

keine signifikanten Wettererscheinungen

keine Wolken


Zwischen 17:00 und 20:00 UTC übergehend zu

Wind 3 kt aus 310°

Sichtweite 10 km oder mehr

keine signifikanten Wettererscheinungen

keine Wolken

TAF EDDT 110500Z 1106/1206 29008KT CAVOK BECMG 1117/1120 31003KT
Impressum